MST,Max TemperatureF,Mean TemperatureF,Min TemperatureF,Max Dew PointF,MeanDew PointF,Min DewpointF,Max Humidity, Mean Humidity, Min Humidity, Max Sea Level PressureIn, Mean Sea Level PressureIn, Min Sea Level PressureIn, Max VisibilityMiles, Mean VisibilityMiles, Min VisibilityMiles, Max Wind SpeedMPH, Mean Wind SpeedMPH, Max Gust SpeedMPH,PrecipitationIn, CloudCover, Events, WindDirDegrees
2010-11-1,63,46,28,41,32,28,100,68,36,30.29,30.18,30.07,10,6,0,14,7,17,0.00,1,Fog,248
2010-11-2,67,51,35,38,34,30,82,55,28,30.32,30.21,30.14,10,10,10,31,13,38,0.00,0,,276
2010-11-3,54,41,27,32,25,21,89,59,28,30.51,30.45,30.34,10,10,10,32,14,45,0.00,0,,303
2010-11-4,52,38,23,26,20,18,81,54,26,30.50,30.39,30.22,10,10,10,12,7,14,0.00,0,,256
2010-11-5,68,48,27,28,23,19,69,45,20,30.19,29.98,29.81,10,10,10,17,10,21,0.00,0,,191
2010-11-6,73,57,40,37,33,27,58,43,27,29.92,29.87,29.78,10,10,10,13,7,17,0.00,0,,247
2010-11-7,70,53,36,38,36,32,85,58,31,29.83,29.75,29.65,10,10,10,14,6,17,0.00,0,,273
2010-11-8,67,49,31,39,35,29,96,64,32,29.65,29.60,29.55,10,10,10,12,5,13,0.00,0,,253
2010-11-9,43,38,33,39,34,30,96,88,79,29.73,29.67,29.57,10,8,3,26,19,36,0.02,8,Rain,307
2010-11-10,33,32,30,31,29,25,100,93,85,30.06,29.83,29.67,10,8,1,24,16,33,T,8,Snow,300
2010-11-11,42,32,21,27,22,18,96,74,51,30.43,30.28,30.06,10,10,10,22,13,26,0.00,1,,255
2010-11-12,48,34,20,24,20,17,88,61,34,30.39,30.34,30.29,10,10,10,14,7,18,0.00,0,,241
2010-11-13,32,28,23,26,24,21,100,89,78,30.28,30.14,29.94,10,6,0,20,11,24,0.00,7,Fog,291
2010-11-14,45,31,17,35,28,16,100,79,58,29.99,29.76,29.59,10,8,0,21,10,28,0.01,5,Fog-Rain,278
2010-11-15,40,34,28,34,32,27,100,85,70,29.80,29.71,29.58,10,8,1,17,10,21,T,8,Rain-Snow,304
2010-11-16,43,34,24,34,30,22,92,81,70,30.09,29.77,29.60,10,10,7,16,7,21,0.00,6,,44
2010-11-17,32,26,20,28,21,15,96,85,74,30.40,30.24,30.04,10,7,2,21,9,25,0.01,8,Snow,18
2010-11-18,34,29,23,30,26,16,100,89,78,30.20,29.83,29.55,10,7,0,33,20,40,0.00,6,Fog,169
2010-11-19,24,16,8,11,4,1,76,63,49,30.32,30.17,29.89,10,8,1,31,13,39,T,3,Snow,360
2010-11-20,12,10,8,9,6,3,92,84,76,30.30,30.05,29.86,10,3,0,22,14,26,0.15,8,Snow,97
2010-11-21,12,5,-2,7,2,-5,88,78,67,30.05,29.98,29.84,10,10,8,17,9,21,T,3,,288
2010-11-22,8,2,-5,1,-1,-6,91,82,73,30.22,30.02,29.86,10,6,1,9,5,12,0.03,7,Snow,350
2010-11-23,10,4,-3,6,-1,-6,95,84,73,30.24,29.97,29.67,10,4,0,22,10,25,T,8,Fog-Snow,122
2010-11-24,10,-1,-12,3,-5,-17,88,77,65,29.94,29.78,29.63,10,4,1,30,18,38,0.09,5,Snow,288
2010-11-25,27,8,-12,22,2,-17,82,70,58,29.94,29.83,29.68,10,9,2,28,20,36,T,5,Snow,281
2010-11-26,35,27,19,22,18,14,77,69,61,30.00,29.93,29.75,10,10,10,26,14,36,0.00,3,,271
2010-11-27,36,28,20,25,20,16,81,70,59,29.93,29.80,29.60,10,10,10,17,7,20,0.00,1,,203
2010-11-28,25,16,7,22,17,7,100,92,83,29.78,29.58,29.45,10,4,0,25,13,31,T,6,Fog,9
2010-11-29,22,18,14,19,14,9,92,85,77,30.25,29.96,29.68,10,3,1,35,22,43,0.02,8,Snow,330
2010-11-30,16,8,0,11,7,-2,91,82,73,30.23,30.16,30.02,10,8,4,26,14,30,T,5,Snow,296